sensor_id;sensor_type;location;lat;lon;timestamp;P1;P2;P0
56175;PMS5003;63065;51.082;17.016;2023-04-26T00:02:15;16;16;
56175;PMS5003;63065;51.082;17.016;2023-04-26T00:04:40;18;15;
56175;PMS5003;63065;51.082;17.016;2023-04-26T00:07:05;17;15;
56175;PMS5003;63065;51.082;17.016;2023-04-26T00:09:31;15;15;
56175;PMS5003;63065;51.082;17.016;2023-04-26T00:11:56;18;15;
56175;PMS5003;63065;51.082;17.016;2023-04-26T00:14:21;18;16;
56175;PMS5003;63065;51.082;17.016;2023-04-26T00:16:47;18;18;
56175;PMS5003;63065;51.082;17.016;2023-04-26T00:19:13;14;12;
56175;PMS5003;63065;51.082;17.016;2023-04-26T00:21:38;19;17;
56175;PMS5003;63065;51.082;17.016;2023-04-26T00:24:04;16;14;
56175;PMS5003;63065;51.082;17.016;2023-04-26T00:26:29;13;13;
56175;PMS5003;63065;51.082;17.016;2023-04-26T00:28:54;14;14;
56175;PMS5003;63065;51.082;17.016;2023-04-26T00:31:19;15;14;
56175;PMS5003;63065;51.082;17.016;2023-04-26T00:33:45;12;12;
56175;PMS5003;63065;51.082;17.016;2023-04-26T00:36:10;14;14;
56175;PMS5003;63065;51.082;17.016;2023-04-26T00:38:35;17;14;
56175;PMS5003;63065;51.082;17.016;2023-04-26T00:41:01;14;14;
56175;PMS5003;63065;51.082;17.016;2023-04-26T00:43:26;17;16;
56175;PMS5003;63065;51.082;17.016;2023-04-26T00:45:52;13;13;
56175;PMS5003;63065;51.082;17.016;2023-04-26T00:48:18;16;15;
56175;PMS5003;63065;51.082;17.016;2023-04-26T00:50:43;14;11;
56175;PMS5003;63065;51.082;17.016;2023-04-26T00:53:09;19;15;
56175;PMS5003;63065;51.082;17.016;2023-04-26T00:55:35;16;16;
56175;PMS5003;63065;51.082;17.016;2023-04-26T00:58:00;14;14;
56175;PMS5003;63065;51.082;17.016;2023-04-26T01:00:26;17;17;
56175;PMS5003;63065;51.082;17.016;2023-04-26T01:02:51;18;18;
56175;PMS5003;63065;51.082;17.016;2023-04-26T01:05:16;16;14;
56175;PMS5003;63065;51.082;17.016;2023-04-26T01:07:41;18;16;
56175;PMS5003;63065;51.082;17.016;2023-04-26T01:10:07;14;12;
56175;PMS5003;63065;51.082;17.016;2023-04-26T01:12:32;16;14;
56175;PMS5003;63065;51.082;17.016;2023-04-26T01:14:58;19;18;
56175;PMS5003;63065;51.082;17.016;2023-04-26T01:17:22;16;15;
56175;PMS5003;63065;51.082;17.016;2023-04-26T01:19:48;15;13;
56175;PMS5003;63065;51.082;17.016;2023-04-26T01:22:13;19;17;
56175;PMS5003;63065;51.082;17.016;2023-04-26T01:24:38;16;13;
56175;PMS5003;63065;51.082;17.016;2023-04-26T01:27:04;14;12;
56175;PMS5003;63065;51.082;17.016;2023-04-26T01:29:29;17;14;
56175;PMS5003;63065;51.082;17.016;2023-04-26T01:31:54;17;12;
56175;PMS5003;63065;51.082;17.016;2023-04-26T01:34:19;12;12;
56175;PMS5003;63065;51.082;17.016;2023-04-26T01:36:44;16;16;
56175;PMS5003;63065;51.082;17.016;2023-04-26T01:39:10;19;15;
56175;PMS5003;63065;51.082;17.016;2023-04-26T01:41:35;11;11;
56175;PMS5003;63065;51.082;17.016;2023-04-26T01:44:01;16;16;
56175;PMS5003;63065;51.082;17.016;2023-04-26T01:46:26;13;12;
56175;PMS5003;63065;51.082;17.016;2023-04-26T01:48:51;17;14;
56175;PMS5003;63065;51.082;17.016;2023-04-26T01:51:17;16;14;
56175;PMS5003;63065;51.082;17.016;2023-04-26T01:53:42;13;13;
56175;PMS5003;63065;51.082;17.016;2023-04-26T01:56:08;14;13;
56175;PMS5003;63065;51.082;17.016;2023-04-26T01:58:32;19;17;
56175;PMS5003;63065;51.082;17.016;2023-04-26T02:01:03;18;16;
56175;PMS5003;63065;51.082;17.016;2023-04-26T02:03:23;16;14;
56175;PMS5003;63065;51.082;17.016;2023-04-26T02:05:49;17;15;
56175;PMS5003;63065;51.082;17.016;2023-04-26T02:08:14;17;16;
56175;PMS5003;63065;51.082;17.016;2023-04-26T02:10:39;19;16;
56175;PMS5003;63065;51.082;17.016;2023-04-26T02:13:06;18;15;
56175;PMS5003;63065;51.082;17.016;2023-04-26T02:15:30;18;18;
56175;PMS5003;63065;51.082;17.016;2023-04-26T02:17:56;19;16;
56175;PMS5003;63065;51.082;17.016;2023-04-26T02:20:21;19;19;
56175;PMS5003;63065;51.082;17.016;2023-04-26T02:22:47;15;12;
56175;PMS5003;63065;51.082;17.016;2023-04-26T02:25:12;14;14;
56175;PMS5003;63065;51.082;17.016;2023-04-26T02:27:38;17;17;
56175;PMS5003;63065;51.082;17.016;2023-04-26T02:30:03;19;17;
56175;PMS5003;63065;51.082;17.016;2023-04-26T02:32:28;15;13;
56175;PMS5003;63065;51.082;17.016;2023-04-26T02:34:54;15;15;
56175;PMS5003;63065;51.082;17.016;2023-04-26T02:37:19;12;12;
56175;PMS5003;63065;51.082;17.016;2023-04-26T02:39:44;16;14;
56175;PMS5003;63065;51.082;17.016;2023-04-26T02:42:10;14;14;
56175;PMS5003;63065;51.082;17.016;2023-04-26T02:44:35;22;17;
56175;PMS5003;63065;51.082;17.016;2023-04-26T02:47:01;15;15;
56175;PMS5003;63065;51.082;17.016;2023-04-26T02:49:26;13;13;
56175;PMS5003;63065;51.082;17.016;2023-04-26T02:51:51;15;13;
56175;PMS5003;63065;51.082;17.016;2023-04-26T02:54:17;14;12;
56175;PMS5003;63065;51.082;17.016;2023-04-26T02:56:43;15;12;
56175;PMS5003;63065;51.082;17.016;2023-04-26T02:59:08;12;12;
56175;PMS5003;63065;51.082;17.016;2023-04-26T03:01:34;16;15;
56175;PMS5003;63065;51.082;17.016;2023-04-26T03:04:00;16;12;
56175;PMS5003;63065;51.082;17.016;2023-04-26T03:06:25;14;14;
56175;PMS5003;63065;51.082;17.016;2023-04-26T03:08:50;16;13;
56175;PMS5003;63065;51.082;17.016;2023-04-26T03:11:16;11;10;
56175;PMS5003;63065;51.082;17.016;2023-04-26T03:13:41;13;11;
56175;PMS5003;63065;51.082;17.016;2023-04-26T03:16:06;11;11;
56175;PMS5003;63065;51.082;17.016;2023-04-26T03:18:31;14;12;
56175;PMS5003;63065;51.082;17.016;2023-04-26T03:20:56;13;13;
56175;PMS5003;63065;51.082;17.016;2023-04-26T03:23:21;9;9;
56175;PMS5003;63065;51.082;17.016;2023-04-26T03:25:47;14;14;
56175;PMS5003;63065;51.082;17.016;2023-04-26T03:28:13;9;9;
56175;PMS5003;63065;51.082;17.016;2023-04-26T03:30:38;14;12;
56175;PMS5003;63065;51.082;17.016;2023-04-26T03:33:03;17;14;
56175;PMS5003;63065;51.082;17.016;2023-04-26T03:35:28;11;11;
56175;PMS5003;63065;51.082;17.016;2023-04-26T03:37:54;15;15;
56175;PMS5003;63065;51.082;17.016;2023-04-26T03:40:19;14;12;
56175;PMS5003;63065;51.082;17.016;2023-04-26T03:42:44;16;15;
56175;PMS5003;63065;51.082;17.016;2023-04-26T03:45:10;13;11;
56175;PMS5003;63065;51.082;17.016;2023-04-26T03:47:35;11;11;
56175;PMS5003;63065;51.082;17.016;2023-04-26T03:50:00;13;13;
56175;PMS5003;63065;51.082;17.016;2023-04-26T03:52:26;9;9;
56175;PMS5003;63065;51.082;17.016;2023-04-26T03:54:52;8;8;
56175;PMS5003;63065;51.082;17.016;2023-04-26T03:57:17;13;10;
56175;PMS5003;63065;51.082;17.016;2023-04-26T03:59:42;14;12;
56175;PMS5003;63065;51.082;17.016;2023-04-26T04:02:07;11;9;
56175;PMS5003;63065;51.082;17.016;2023-04-26T04:04:33;16;11;
56175;PMS5003;63065;51.082;17.016;2023-04-26T04:06:58;12;12;
56175;PMS5003;63065;51.082;17.016;2023-04-26T04:09:23;10;10;
56175;PMS5003;63065;51.082;17.016;2023-04-26T04:11:49;12;10;
56175;PMS5003;63065;51.082;17.016;2023-04-26T04:14:14;9;8;
56175;PMS5003;63065;51.082;17.016;2023-04-26T04:16:39;10;10;
56175;PMS5003;63065;51.082;17.016;2023-04-26T04:19:04;10;10;
56175;PMS5003;63065;51.082;17.016;2023-04-26T04:21:29;8;8;
56175;PMS5003;63065;51.082;17.016;2023-04-26T04:23:54;8;8;
56175;PMS5003;63065;51.082;17.016;2023-04-26T04:26:19;11;11;
56175;PMS5003;63065;51.082;17.016;2023-04-26T04:28:45;10;10;
56175;PMS5003;63065;51.082;17.016;2023-04-26T04:31:10;7;7;
56175;PMS5003;63065;51.082;17.016;2023-04-26T04:33:35;12;10;
56175;PMS5003;63065;51.082;17.016;2023-04-26T04:36:01;6;6;
56175;PMS5003;63065;51.082;17.016;2023-04-26T04:38:26;12;10;
56175;PMS5003;63065;51.082;17.016;2023-04-26T04:40:51;8;8;
56175;PMS5003;63065;51.082;17.016;2023-04-26T04:43:17;8;8;
56175;PMS5003;63065;51.082;17.016;2023-04-26T04:45:42;12;10;
56175;PMS5003;63065;51.082;17.016;2023-04-26T04:48:08;10;8;
56175;PMS5003;63065;51.082;17.016;2023-04-26T04:50:33;8;7;
56175;PMS5003;63065;51.082;17.016;2023-04-26T04:52:58;9;7;
56175;PMS5003;63065;51.082;17.016;2023-04-26T04:55:24;13;12;
56175;PMS5003;63065;51.082;17.016;2023-04-26T04:57:50;11;10;
56175;PMS5003;63065;51.082;17.016;2023-04-26T05:00:16;11;7;
56175;PMS5003;63065;51.082;17.016;2023-04-26T05:02:41;8;6;
56175;PMS5003;63065;51.082;17.016;2023-04-26T05:05:06;11;8;
56175;PMS5003;63065;51.082;17.016;2023-04-26T05:07:31;9;8;
56175;PMS5003;63065;51.082;17.016;2023-04-26T05:09:56;11;7;
56175;PMS5003;63065;51.082;17.016;2023-04-26T05:12:21;11;10;
56175;PMS5003;63065;51.082;17.016;2023-04-26T05:14:47;7;7;
56175;PMS5003;63065;51.082;17.016;2023-04-26T05:17:12;8;8;
56175;PMS5003;63065;51.082;17.016;2023-04-26T05:19:37;8;8;
56175;PMS5003;63065;51.082;17.016;2023-04-26T05:22:03;11;11;
56175;PMS5003;63065;51.082;17.016;2023-04-26T05:24:28;11;8;
56175;PMS5003;63065;51.082;17.016;2023-04-26T05:26:54;9;9;
56175;PMS5003;63065;51.082;17.016;2023-04-26T05:29:19;8;8;
56175;PMS5003;63065;51.082;17.016;2023-04-26T05:31:44;7;7;
56175;PMS5003;63065;51.082;17.016;2023-04-26T05:34:09;9;7;
56175;PMS5003;63065;51.082;17.016;2023-04-26T05:36:34;8;8;
56175;PMS5003;63065;51.082;17.016;2023-04-26T05:38:59;10;8;
56175;PMS5003;63065;51.082;17.016;2023-04-26T05:41:25;8;8;
56175;PMS5003;63065;51.082;17.016;2023-04-26T05:43:50;7;6;
56175;PMS5003;63065;51.082;17.016;2023-04-26T05:46:15;6;6;
56175;PMS5003;63065;51.082;17.016;2023-04-26T05:48:40;11;9;
56175;PMS5003;63065;51.082;17.016;2023-04-26T05:51:05;5;5;
56175;PMS5003;63065;51.082;17.016;2023-04-26T05:53:30;6;6;
56175;PMS5003;63065;51.082;17.016;2023-04-26T05:55:56;7;5;
56175;PMS5003;63065;51.082;17.016;2023-04-26T05:58:21;8;8;
56175;PMS5003;63065;51.082;17.016;2023-04-26T06:00:46;7;7;
56175;PMS5003;63065;51.082;17.016;2023-04-26T06:03:11;8;6;
56175;PMS5003;63065;51.082;17.016;2023-04-26T06:05:36;7;6;
56175;PMS5003;63065;51.082;17.016;2023-04-26T06:08:01;6;6;
56175;PMS5003;63065;51.082;17.016;2023-04-26T06:10:26;4;3;
56175;PMS5003;63065;51.082;17.016;2023-04-26T06:12:52;9;9;
56175;PMS5003;63065;51.082;17.016;2023-04-26T06:15:17;6;5;
56175;PMS5003;63065;51.082;17.016;2023-04-26T06:17:43;9;7;
56175;PMS5003;63065;51.082;17.016;2023-04-26T06:20:08;5;5;
56175;PMS5003;63065;51.082;17.016;2023-04-26T06:22:33;6;6;
56175;PMS5003;63065;51.082;17.016;2023-04-26T06:24:58;5;4;
56175;PMS5003;63065;51.082;17.016;2023-04-26T06:27:23;5;5;
56175;PMS5003;63065;51.082;17.016;2023-04-26T06:29:48;3;3;
56175;PMS5003;63065;51.082;17.016;2023-04-26T06:32:14;10;8;
56175;PMS5003;63065;51.082;17.016;2023-04-26T06:34:40;5;5;
56175;PMS5003;63065;51.082;17.016;2023-04-26T06:37:05;7;7;
56175;PMS5003;63065;51.082;17.016;2023-04-26T06:39:30;7;5;
56175;PMS5003;63065;51.082;17.016;2023-04-26T06:41:55;6;6;
56175;PMS5003;63065;51.082;17.016;2023-04-26T06:44:20;4;4;
56175;PMS5003;63065;51.082;17.016;2023-04-26T06:46:46;4;4;
56175;PMS5003;63065;51.082;17.016;2023-04-26T06:49:11;7;4;
56175;PMS5003;63065;51.082;17.016;2023-04-26T06:51:36;6;6;
56175;PMS5003;63065;51.082;17.016;2023-04-26T06:54:01;7;7;
56175;PMS5003;63065;51.082;17.016;2023-04-26T06:56:26;6;5;
56175;PMS5003;63065;51.082;17.016;2023-04-26T07:01:17;7;7;
56175;PMS5003;63065;51.082;17.016;2023-04-26T07:03:43;7;7;
56175;PMS5003;63065;51.082;17.016;2023-04-26T07:06:08;5;5;
56175;PMS5003;63065;51.082;17.016;2023-04-26T07:08:33;7;4;
56175;PMS5003;63065;51.082;17.016;2023-04-26T07:10:58;5;5;
56175;PMS5003;63065;51.082;17.016;2023-04-26T07:13:23;5;4;
56175;PMS5003;63065;51.082;17.016;2023-04-26T07:15:48;5;5;
56175;PMS5003;63065;51.082;17.016;2023-04-26T07:18:13;3;3;
56175;PMS5003;63065;51.082;17.016;2023-04-26T07:20:38;3;3;
56175;PMS5003;63065;51.082;17.016;2023-04-26T07:23:03;6;6;
56175;PMS5003;63065;51.082;17.016;2023-04-26T07:25:28;4;4;
56175;PMS5003;63065;51.082;17.016;2023-04-26T07:27:54;3;3;
56175;PMS5003;63065;51.082;17.016;2023-04-26T07:30:19;6;4;
56175;PMS5003;63065;51.082;17.016;2023-04-26T07:32:45;5;5;
56175;PMS5003;63065;51.082;17.016;2023-04-26T07:35:10;3;3;
56175;PMS5003;63065;51.082;17.016;2023-04-26T07:37:35;4;2;
56175;PMS5003;63065;51.082;17.016;2023-04-26T07:40:00;6;5;
56175;PMS5003;63065;51.082;17.016;2023-04-26T07:42:25;3;3;
56175;PMS5003;63065;51.082;17.016;2023-04-26T07:44:50;5;5;
56175;PMS5003;63065;51.082;17.016;2023-04-26T07:47:16;2;2;
56175;PMS5003;63065;51.082;17.016;2023-04-26T07:49:41;4;4;
56175;PMS5003;63065;51.082;17.016;2023-04-26T07:52:07;4;3;
56175;PMS5003;63065;51.082;17.016;2023-04-26T07:54:33;3;3;
56175;PMS5003;63065;51.082;17.016;2023-04-26T07:56:59;5;4;
56175;PMS5003;63065;51.082;17.016;2023-04-26T07:59:25;2;2;
56175;PMS5003;63065;51.082;17.016;2023-04-26T08:01:51;5;3;
56175;PMS5003;63065;51.082;17.016;2023-04-26T08:04:17;4;2;
56175;PMS5003;63065;51.082;17.016;2023-04-26T08:06:42;5;3;
56175;PMS5003;63065;51.082;17.016;2023-04-26T08:09:07;4;3;
56175;PMS5003;63065;51.082;17.016;2023-04-26T08:11:33;2;2;
56175;PMS5003;63065;51.082;17.016;2023-04-26T08:13:59;3;3;
56175;PMS5003;63065;51.082;17.016;2023-04-26T08:16:25;2;2;
56175;PMS5003;63065;51.082;17.016;2023-04-26T08:18:51;2;2;
56175;PMS5003;63065;51.082;17.016;2023-04-26T08:21:17;4;3;
56175;PMS5003;63065;51.082;17.016;2023-04-26T08:23:43;2;2;
56175;PMS5003;63065;51.082;17.016;2023-04-26T08:26:08;3;3;
56175;PMS5003;63065;51.082;17.016;2023-04-26T08:28:33;4;2;
56175;PMS5003;63065;51.082;17.016;2023-04-26T08:30:59;2;2;
56175;PMS5003;63065;51.082;17.016;2023-04-26T08:33:25;3;2;
56175;PMS5003;63065;51.082;17.016;2023-04-26T08:35:51;2;2;
56175;PMS5003;63065;51.082;17.016;2023-04-26T08:38:17;3;2;
56175;PMS5003;63065;51.082;17.016;2023-04-26T08:40:43;2;1;
56175;PMS5003;63065;51.082;17.016;2023-04-26T08:43:09;4;3;
56175;PMS5003;63065;51.082;17.016;2023-04-26T08:45:34;3;3;
56175;PMS5003;63065;51.082;17.016;2023-04-26T08:48:02;3;3;
56175;PMS5003;63065;51.082;17.016;2023-04-26T08:50:27;4;4;
56175;PMS5003;63065;51.082;17.016;2023-04-26T08:52:52;6;5;
56175;PMS5003;63065;51.082;17.016;2023-04-26T08:55:18;4;4;
56175;PMS5003;63065;51.082;17.016;2023-04-26T08:57:45;2;2;
56175;PMS5003;63065;51.082;17.016;2023-04-26T09:00:10;2;2;
56175;PMS5003;63065;51.082;17.016;2023-04-26T09:02:35;3;3;
56175;PMS5003;63065;51.082;17.016;2023-04-26T09:05:01;2;2;
56175;PMS5003;63065;51.082;17.016;2023-04-26T09:07:29;2;2;
56175;PMS5003;63065;51.082;17.016;2023-04-26T09:09:53;1;1;
56175;PMS5003;63065;51.082;17.016;2023-04-26T09:12:19;2;2;
56175;PMS5003;63065;51.082;17.016;2023-04-26T09:14:45;3;3;
56175;PMS5003;63065;51.082;17.016;2023-04-26T09:19:36;4;4;
56175;PMS5003;63065;51.082;17.016;2023-04-26T09:22:02;2;2;
56175;PMS5003;63065;51.082;17.016;2023-04-26T09:24:27;3;3;
56175;PMS5003;63065;51.082;17.016;2023-04-26T09:29:19;3;3;
56175;PMS5003;63065;51.082;17.016;2023-04-26T09:31:45;2;2;
56175;PMS5003;63065;51.082;17.016;2023-04-26T09:34:11;4;4;
56175;PMS5003;63065;51.082;17.016;2023-04-26T09:39:02;2;2;
56175;PMS5003;63065;51.082;17.016;2023-04-26T09:43:54;4;4;
56175;PMS5003;63065;51.082;17.016;2023-04-26T09:46:21;3;2;
56175;PMS5003;63065;51.082;17.016;2023-04-26T09:48:45;4;4;
56175;PMS5003;63065;51.082;17.016;2023-04-26T09:51:11;3;3;
56175;PMS5003;63065;51.082;17.016;2023-04-26T09:53:37;2;2;
56175;PMS5003;63065;51.082;17.016;2023-04-26T09:56:06;2;2;
56175;PMS5003;63065;51.082;17.016;2023-04-26T09:58:28;2;1;
56175;PMS5003;63065;51.082;17.016;2023-04-26T10:00:55;6;6;
56175;PMS5003;63065;51.082;17.016;2023-04-26T10:03:21;2;1;
56175;PMS5003;63065;51.082;17.016;2023-04-26T10:05:45;1;1;
56175;PMS5003;63065;51.082;17.016;2023-04-26T10:08:11;1;1;
56175;PMS5003;63065;51.082;17.016;2023-04-26T10:10:37;4;4;
56175;PMS5003;63065;51.082;17.016;2023-04-26T10:13:04;3;3;
56175;PMS5003;63065;51.082;17.016;2023-04-26T10:15:28;6;6;
56175;PMS5003;63065;51.082;17.016;2023-04-26T10:17:54;5;3;
56175;PMS5003;63065;51.082;17.016;2023-04-26T10:20:20;2;2;
56175;PMS5003;63065;51.082;17.016;2023-04-26T10:22:49;3;3;
56175;PMS5003;63065;51.082;17.016;2023-04-26T10:25:12;4;4;
56175;PMS5003;63065;51.082;17.016;2023-04-26T10:30:05;4;4;
56175;PMS5003;63065;51.082;17.016;2023-04-26T10:32:29;7;6;
56175;PMS5003;63065;51.082;17.016;2023-04-26T10:37:21;2;2;
56175;PMS5003;63065;51.082;17.016;2023-04-26T10:39:47;3;3;
56175;PMS5003;63065;51.082;17.016;2023-04-26T10:44:39;3;3;
56175;PMS5003;63065;51.082;17.016;2023-04-26T10:47:04;4;3;
56175;PMS5003;63065;51.082;17.016;2023-04-26T10:49:30;4;2;
56175;PMS5003;63065;51.082;17.016;2023-04-26T10:54:21;2;2;
56175;PMS5003;63065;51.082;17.016;2023-04-26T10:56:50;3;3;
56175;PMS5003;63065;51.082;17.016;2023-04-26T10:59:14;2;1;
56175;PMS5003;63065;51.082;17.016;2023-04-26T11:01:39;3;3;
56175;PMS5003;63065;51.082;17.016;2023-04-26T11:04:05;3;3;
56175;PMS5003;63065;51.082;17.016;2023-04-26T11:08:56;4;3;
56175;PMS5003;63065;51.082;17.016;2023-04-26T11:11:24;6;3;
56175;PMS5003;63065;51.082;17.016;2023-04-26T11:13:48;2;2;
56175;PMS5003;63065;51.082;17.016;2023-04-26T11:16:14;4;3;
56175;PMS5003;63065;51.082;17.016;2023-04-26T11:18:40;2;2;
56175;PMS5003;63065;51.082;17.016;2023-04-26T11:21:05;2;2;
56175;PMS5003;63065;51.082;17.016;2023-04-26T11:23:31;2;2;
56175;PMS5003;63065;51.082;17.016;2023-04-26T11:25:57;1;1;
56175;PMS5003;63065;51.082;17.016;2023-04-26T11:28:22;2;2;
56175;PMS5003;63065;51.082;17.016;2023-04-26T11:30:49;3;3;
56175;PMS5003;63065;51.082;17.016;2023-04-26T11:33:15;2;2;
56175;PMS5003;63065;51.082;17.016;2023-04-26T11:35:40;1;1;
56175;PMS5003;63065;51.082;17.016;2023-04-26T11:38:05;3;3;
56175;PMS5003;63065;51.082;17.016;2023-04-26T11:40:31;2;2;
56175;PMS5003;63065;51.082;17.016;2023-04-26T11:42:58;4;4;
56175;PMS5003;63065;51.082;17.016;2023-04-26T11:45:23;3;3;
56175;PMS5003;63065;51.082;17.016;2023-04-26T11:47:49;1;1;
56175;PMS5003;63065;51.082;17.016;2023-04-26T11:50:14;3;3;
56175;PMS5003;63065;51.082;17.016;2023-04-26T11:52:40;4;4;
56175;PMS5003;63065;51.082;17.016;2023-04-26T11:55:06;1;1;
56175;PMS5003;63065;51.082;17.016;2023-04-26T11:57:32;4;4;
56175;PMS5003;63065;51.082;17.016;2023-04-26T12:02:23;5;5;
56175;PMS5003;63065;51.082;17.016;2023-04-26T12:04:49;5;4;
56175;PMS5003;63065;51.082;17.016;2023-04-26T12:07:17;2;2;
56175;PMS5003;63065;51.082;17.016;2023-04-26T12:09:41;2;2;
56175;PMS5003;63065;51.082;17.016;2023-04-26T12:12:07;6;4;
56175;PMS5003;63065;51.082;17.016;2023-04-26T12:14:33;3;3;
56175;PMS5003;63065;51.082;17.016;2023-04-26T12:16:59;4;4;
56175;PMS5003;63065;51.082;17.016;2023-04-26T12:19:24;1;1;
56175;PMS5003;63065;51.082;17.016;2023-04-26T12:21:50;3;3;
56175;PMS5003;63065;51.082;17.016;2023-04-26T12:24:20;1;1;
56175;PMS5003;63065;51.082;17.016;2023-04-26T12:26:42;4;4;
56175;PMS5003;63065;51.082;17.016;2023-04-26T12:29:08;1;1;
56175;PMS5003;63065;51.082;17.016;2023-04-26T12:31:33;3;3;
56175;PMS5003;63065;51.082;17.016;2023-04-26T12:33:59;3;3;
56175;PMS5003;63065;51.082;17.016;2023-04-26T12:36:25;3;3;
56175;PMS5003;63065;51.082;17.016;2023-04-26T12:38:51;0;0;
56175;PMS5003;63065;51.082;17.016;2023-04-26T12:41:17;2;2;
56175;PMS5003;63065;51.082;17.016;2023-04-26T12:43:42;2;2;
56175;PMS5003;63065;51.082;17.016;2023-04-26T12:46:08;1;1;
56175;PMS5003;63065;51.082;17.016;2023-04-26T12:48:34;3;3;
56175;PMS5003;63065;51.082;17.016;2023-04-26T12:51:00;4;3;
56175;PMS5003;63065;51.082;17.016;2023-04-26T12:53:26;2;2;
56175;PMS5003;63065;51.082;17.016;2023-04-26T12:55:52;2;2;
56175;PMS5003;63065;51.082;17.016;2023-04-26T12:58:18;2;2;
56175;PMS5003;63065;51.082;17.016;2023-04-26T13:00:43;2;2;
56175;PMS5003;63065;51.082;17.016;2023-04-26T13:03:09;4;3;
56175;PMS5003;63065;51.082;17.016;2023-04-26T13:05:35;4;4;
56175;PMS5003;63065;51.082;17.016;2023-04-26T13:08:01;6;5;
56175;PMS5003;63065;51.082;17.016;2023-04-26T13:10:26;3;3;
56175;PMS5003;63065;51.082;17.016;2023-04-26T13:12:52;3;2;
56175;PMS5003;63065;51.082;17.016;2023-04-26T13:15:18;2;2;
56175;PMS5003;63065;51.082;17.016;2023-04-26T13:17:43;2;2;
56175;PMS5003;63065;51.082;17.016;2023-04-26T13:20:10;2;2;
56175;PMS5003;63065;51.082;17.016;2023-04-26T13:22:34;3;3;
56175;PMS5003;63065;51.082;17.016;2023-04-26T13:25:00;3;3;
56175;PMS5003;63065;51.082;17.016;2023-04-26T13:27:26;2;2;
56175;PMS5003;63065;51.082;17.016;2023-04-26T13:29:52;3;2;
56175;PMS5003;63065;51.082;17.016;2023-04-26T13:32:17;2;2;
56175;PMS5003;63065;51.082;17.016;2023-04-26T13:34:43;4;3;
56175;PMS5003;63065;51.082;17.016;2023-04-26T13:37:09;3;3;
56175;PMS5003;63065;51.082;17.016;2023-04-26T13:39:34;4;4;
56175;PMS5003;63065;51.082;17.016;2023-04-26T13:42:00;3;3;
56175;PMS5003;63065;51.082;17.016;2023-04-26T13:44:26;3;3;
56175;PMS5003;63065;51.082;17.016;2023-04-26T13:46:53;5;5;
56175;PMS5003;63065;51.082;17.016;2023-04-26T13:49:18;2;2;
56175;PMS5003;63065;51.082;17.016;2023-04-26T13:51:44;3;3;
56175;PMS5003;63065;51.082;17.016;2023-04-26T13:54:10;2;2;
56175;PMS5003;63065;51.082;17.016;2023-04-26T13:56:35;3;2;
56175;PMS5003;63065;51.082;17.016;2023-04-26T13:59:01;3;3;
56175;PMS5003;63065;51.082;17.016;2023-04-26T14:01:27;3;3;
56175;PMS5003;63065;51.082;17.016;2023-04-26T14:03:53;3;3;
56175;PMS5003;63065;51.082;17.016;2023-04-26T14:06:18;2;2;
56175;PMS5003;63065;51.082;17.016;2023-04-26T14:08:44;5;5;
56175;PMS5003;63065;51.082;17.016;2023-04-26T14:11:10;2;2;
56175;PMS5003;63065;51.082;17.016;2023-04-26T14:13:36;4;4;
56175;PMS5003;63065;51.082;17.016;2023-04-26T14:16:02;6;4;
56175;PMS5003;63065;51.082;17.016;2023-04-26T14:18:28;5;3;
56175;PMS5003;63065;51.082;17.016;2023-04-26T14:20:53;2;2;
56175;PMS5003;63065;51.082;17.016;2023-04-26T14:23:19;7;5;
56175;PMS5003;63065;51.082;17.016;2023-04-26T14:25:45;2;2;
56175;PMS5003;63065;51.082;17.016;2023-04-26T14:28:10;2;2;
56175;PMS5003;63065;51.082;17.016;2023-04-26T14:30:37;3;3;
56175;PMS5003;63065;51.082;17.016;2023-04-26T14:33:02;4;4;
56175;PMS5003;63065;51.082;17.016;2023-04-26T14:35:28;3;3;
56175;PMS5003;63065;51.082;17.016;2023-04-26T14:37:54;4;3;
56175;PMS5003;63065;51.082;17.016;2023-04-26T14:40:19;4;3;
56175;PMS5003;63065;51.082;17.016;2023-04-26T14:42:45;8;6;
56175;PMS5003;63065;51.082;17.016;2023-04-26T14:45:11;3;3;
56175;PMS5003;63065;51.082;17.016;2023-04-26T14:47:36;4;4;
56175;PMS5003;63065;51.082;17.016;2023-04-26T14:50:02;4;4;
56175;PMS5003;63065;51.082;17.016;2023-04-26T14:52:28;4;2;
56175;PMS5003;63065;51.082;17.016;2023-04-26T14:54:53;4;4;
56175;PMS5003;63065;51.082;17.016;2023-04-26T14:57:19;2;2;
56175;PMS5003;63065;51.082;17.016;2023-04-26T14:59:45;3;3;
56175;PMS5003;63065;51.082;17.016;2023-04-26T15:02:11;3;3;
56175;PMS5003;63065;51.082;17.016;2023-04-26T15:04:37;0;0;
56175;PMS5003;63065;51.082;17.016;2023-04-26T15:07:02;4;4;
56175;PMS5003;63065;51.082;17.016;2023-04-26T15:09:28;2;2;
56175;PMS5003;63065;51.082;17.016;2023-04-26T15:11:54;5;5;
56175;PMS5003;63065;51.082;17.016;2023-04-26T15:14:20;5;5;
56175;PMS5003;63065;51.082;17.016;2023-04-26T15:16:46;2;2;
56175;PMS5003;63065;51.082;17.016;2023-04-26T15:19:11;5;4;
56175;PMS5003;63065;51.082;17.016;2023-04-26T15:21:37;3;3;
56175;PMS5003;63065;51.082;17.016;2023-04-26T15:24:03;3;3;
56175;PMS5003;63065;51.082;17.016;2023-04-26T15:26:29;2;2;
56175;PMS5003;63065;51.082;17.016;2023-04-26T15:28:55;2;2;
56175;PMS5003;63065;51.082;17.016;2023-04-26T15:31:21;2;2;
56175;PMS5003;63065;51.082;17.016;2023-04-26T15:33:47;2;2;
56175;PMS5003;63065;51.082;17.016;2023-04-26T15:36:12;6;3;
56175;PMS5003;63065;51.082;17.016;2023-04-26T15:38:38;4;4;
56175;PMS5003;63065;51.082;17.016;2023-04-26T15:41:04;3;3;
56175;PMS5003;63065;51.082;17.016;2023-04-26T15:43:30;1;1;
56175;PMS5003;63065;51.082;17.016;2023-04-26T15:45:56;3;3;
56175;PMS5003;63065;51.082;17.016;2023-04-26T15:48:22;5;4;
56175;PMS5003;63065;51.082;17.016;2023-04-26T15:50:48;5;4;
56175;PMS5003;63065;51.082;17.016;2023-04-26T15:53:13;3;3;
56175;PMS5003;63065;51.082;17.016;2023-04-26T15:55:39;5;4;
56175;PMS5003;63065;51.082;17.016;2023-04-26T15:58:05;3;3;
56175;PMS5003;63065;51.082;17.016;2023-04-26T16:00:31;4;4;
56175;PMS5003;63065;51.082;17.016;2023-04-26T16:02:57;2;2;
56175;PMS5003;63065;51.082;17.016;2023-04-26T16:05:23;6;5;
56175;PMS5003;63065;51.082;17.016;2023-04-26T16:07:49;5;5;
56175;PMS5003;63065;51.082;17.016;2023-04-26T16:10:14;5;4;
56175;PMS5003;63065;51.082;17.016;2023-04-26T16:12:40;4;4;
56175;PMS5003;63065;51.082;17.016;2023-04-26T16:15:06;5;5;
56175;PMS5003;63065;51.082;17.016;2023-04-26T16:17:31;5;3;
56175;PMS5003;63065;51.082;17.016;2023-04-26T16:19:57;5;5;
56175;PMS5003;63065;51.082;17.016;2023-04-26T16:22:23;4;4;
56175;PMS5003;63065;51.082;17.016;2023-04-26T16:24:48;4;4;
56175;PMS5003;63065;51.082;17.016;2023-04-26T16:27:14;6;6;
56175;PMS5003;63065;51.082;17.016;2023-04-26T16:29:40;2;2;
56175;PMS5003;63065;51.082;17.016;2023-04-26T16:32:06;3;3;
56175;PMS5003;63065;51.082;17.016;2023-04-26T16:34:31;3;3;
56175;PMS5003;63065;51.082;17.016;2023-04-26T16:36:57;2;2;
56175;PMS5003;63065;51.082;17.016;2023-04-26T16:39:23;5;3;